Time;durP1;ratioP1;P1;durP2;ratioP2;P2;SDS_P1;SDS_P2;PMS_P1;PMS_P2;Temp;Humidity;BMP_temperature;BMP_pressure;BME280_temperature;BME280_humidity;BME280_pressure;Samples;Min_cycle;Max_cycle;Signal;HPM_P1;HPM_P2
2022/05/06 00:02:05;;;;;;;16.20;11.97;;;;;;;11.66;97.68;98471.06;1742767;81;22405;-89
2022/05/06 00:04:31;;;;;;;16.12;11.45;;;;;;;11.62;97.34;98483.00;1727023;82;21040;-80
2022/05/06 00:06:57;;;;;;;15.13;12.18;;;;;;;11.60;97.71;98505.54;1720712;82;20980;-89
2022/05/06 00:09:23;;;;;;;19.80;11.55;;;;;;;11.61;97.37;98509.88;1713359;80;20963;-80
2022/05/06 00:11:50;;;;;;;19.48;12.50;;;;;;;11.62;97.52;98507.97;1731581;80;21056;-80
2022/05/06 00:14:16;;;;;;;16.65;12.82;;;;;;;11.58;100.00;98500.39;1716964;80;21000;-89
2022/05/06 00:16:42;;;;;;;15.53;12.33;;;;;;;11.59;100.00;98500.66;1723990;82;21216;-80
2022/05/06 00:19:08;;;;;;;14.65;11.80;;;;;;;11.59;100.00;98499.84;1711570;80;20970;-88
2022/05/06 00:21:36;;;;;;;15.55;11.15;;;;;;;11.63;98.74;98514.51;1728762;80;21149;-88
2022/05/06 00:24:05;;;;;;;13.58;9.85;;;;;;;11.64;98.42;98517.49;1728311;80;20871;-88
2022/05/06 00:26:31;;;;;;;10.93;9.18;;;;;;;11.64;99.99;98519.39;1728839;80;21430;-80
2022/05/06 00:28:57;;;;;;;15.20;9.60;;;;;;;11.68;98.26;98517.20;1739028;80;21152;-89
2022/05/06 00:31:23;;;;;;;14.20;11.48;;;;;;;11.69;98.38;98512.58;1743490;81;21008;-80
2022/05/06 00:33:49;;;;;;;16.67;10.78;;;;;;;11.72;99.44;98503.91;1743212;82;21591;-80
2022/05/06 00:36:15;;;;;;;24.25;11.38;;;;;;;11.75;98.36;98512.30;1743318;82;20890;-80
2022/05/06 00:38:44;;;;;;;17.05;9.50;;;;;;;11.80;97.81;98512.88;1743271;80;20890;-89
2022/05/06 00:41:10;;;;;;;12.10;8.08;;;;;;;11.84;98.09;98509.86;1726598;80;21075;-81
2022/05/06 00:43:40;;;;;;;12.07;8.33;;;;;;;11.92;97.70;98506.58;1742999;81;20922;-89
2022/05/06 00:46:10;;;;;;;12.20;9.33;;;;;;;11.95;97.33;98512.81;1743424;82;21024;-80
2022/05/06 00:48:36;;;;;;;15.70;9.85;;;;;;;12.04;97.20;98514.41;1742038;81;20989;-81
2022/05/06 00:51:02;;;;;;;13.58;10.88;;;;;;;12.06;98.58;98518.50;1720049;82;20915;-80
2022/05/06 00:53:28;;;;;;;16.70;10.65;;;;;;;12.01;99.71;98510.36;1710179;82;22010;-80
2022/05/06 00:55:56;;;;;;;14.85;9.78;;;;;;;11.98;99.77;98511.47;1721823;80;20858;-89
2022/05/06 00:58:23;;;;;;;15.65;8.00;;;;;;;11.94;99.26;98516.62;1724151;82;21014;-89
2022/05/06 01:00:49;;;;;;;12.13;8.80;;;;;;;11.93;97.99;98518.26;1720876;80;21470;-80
2022/05/06 01:03:15;;;;;;;11.43;9.40;;;;;;;11.93;98.57;98520.98;1720190;80;20898;-89
2022/05/06 01:05:41;;;;;;;13.03;9.85;;;;;;;11.93;98.04;98523.69;1723997;80;21318;-88
2022/05/06 01:08:08;;;;;;;11.43;9.70;;;;;;;11.93;97.61;98519.06;1743004;81;20918;-80
2022/05/06 01:10:34;;;;;;;15.28;9.78;;;;;;;11.94;97.46;98519.34;1743358;82;21001;-89
2022/05/06 01:13:00;;;;;;;11.00;8.43;;;;;;;11.89;97.30;98518.55;1746769;81;21001;-80
2022/05/06 01:15:28;;;;;;;12.68;8.73;;;;;;;11.87;97.37;98522.87;1719493;82;20970;-81
2022/05/06 01:17:55;;;;;;;15.10;10.70;;;;;;;11.83;97.26;98518.55;1714392;80;21011;-80
2022/05/06 01:20:23;;;;;;;13.72;10.63;;;;;;;11.78;97.76;98521.24;1739988;82;21486;-90
2022/05/06 01:22:51;;;;;;;14.10;10.23;;;;;;;11.77;98.12;98520.16;1710746;82;21534;-89
2022/05/06 01:25:17;;;;;;;16.00;10.03;;;;;;;11.77;97.97;98524.23;1721412;80;21102;-80
2022/05/06 01:27:50;;;;;;;13.58;10.65;;;;;;;11.76;97.40;98522.06;1731408;80;21017;-88
2022/05/06 01:30:24;;;;;;;14.55;10.05;;;;;;;11.73;97.20;98528.06;1741114;82;21592;-80
2022/05/06 01:32:50;;;;;;;12.45;9.88;;;;;;;11.72;97.36;98531.05;1717175;82;21045;-89
2022/05/06 01:35:16;;;;;;;17.90;11.10;;;;;;;11.72;97.47;98525.62;1743382;82;21062;-88
2022/05/06 01:37:42;;;;;;;13.93;9.68;;;;;;;11.71;97.47;98514.50;1743283;81;21599;-88
2022/05/06 01:40:09;;;;;;;17.85;10.80;;;;;;;11.68;97.69;98520.45;1743441;82;20898;-88
2022/05/06 01:42:36;;;;;;;14.75;9.95;;;;;;;11.60;98.15;98519.11;1743118;81;21017;-89
2022/05/06 01:45:02;;;;;;;17.90;10.85;;;;;;;11.58;97.53;98523.45;1743142;82;21048;-80
2022/05/06 01:47:28;;;;;;;24.35;14.35;;;;;;;11.55;97.67;98535.42;1722024;82;22100;-80
2022/05/06 01:49:54;;;;;;;19.67;12.10;;;;;;;11.53;97.94;98532.95;1743346;82;20953;-89
2022/05/06 01:52:20;;;;;;;19.52;12.23;;;;;;;11.51;97.88;98538.39;1743217;81;20966;-80
2022/05/06 01:54:47;;;;;;;14.28;10.08;;;;;;;11.43;100.00;98538.39;1719331;82;21250;-80
2022/05/06 01:57:14;;;;;;;17.57;9.13;;;;;;;11.42;100.00;98529.17;1739374;80;21460;-89
2022/05/06 01:59:40;;;;;;;11.20;8.40;;;;;;;11.44;99.12;98534.59;1727385;82;21049;-80
2022/05/06 02:02:05;;;;;;;20.27;11.97;;;;;;;11.43;99.17;98539.75;1743318;81;20847;-80
2022/05/06 02:07:16;;;;;;;20.15;12.18;;;;;;;11.41;99.27;98539.22;1743112;81;21272;-81
2022/05/06 02:09:42;;;;;;;12.50;9.73;;;;;;;11.43;99.63;98533.52;1743008;82;20882;-80
2022/05/06 02:12:09;;;;;;;21.27;11.63;;;;;;;11.45;98.65;98538.96;1743404;81;20957;-81
2022/05/06 02:14:34;;;;;;;17.15;11.22;;;;;;;11.45;98.82;98531.33;1722140;82;21079;-81
2022/05/06 02:17:00;;;;;;;17.87;13.20;;;;;;;11.47;98.66;98537.33;1743362;81;21571;-80
2022/05/06 02:19:26;;;;;;;19.82;13.03;;;;;;;11.49;98.51;98544.10;1743258;82;21390;-81
2022/05/06 02:21:52;;;;;;;19.75;15.75;;;;;;;11.53;98.40;98548.42;1721828;82;20861;-90
2022/05/06 02:24:18;;;;;;;20.70;14.33;;;;;;;11.55;98.28;98548.45;1712565;80;21643;-85
2022/05/06 02:26:44;;;;;;;21.52;14.50;;;;;;;11.59;98.19;98557.66;1738652;80;20945;-89
2022/05/06 02:29:10;;;;;;;14.47;11.33;;;;;;;11.58;98.38;98560.64;1743037;82;21432;-81
2022/05/06 02:34:20;;;;;;;18.75;13.48;;;;;;;11.53;98.08;98580.99;1713561;82;21059;-89
2022/05/06 02:36:46;;;;;;;15.50;12.13;;;;;;;11.51;97.85;98586.70;1704069;82;21637;-80
2022/05/06 02:39:12;;;;;;;14.60;10.78;;;;;;;11.52;97.74;98595.66;1710121;82;21010;-81
2022/05/06 02:41:38;;;;;;;14.60;11.20;;;;;;;11.53;97.66;98598.64;1703316;82;21305;-89
2022/05/06 02:44:04;;;;;;;13.85;10.85;;;;;;;11.53;97.43;98604.88;1722519;80;21895;-89
2022/05/06 02:46:33;;;;;;;19.52;13.62;;;;;;;11.51;97.55;98598.91;1728639;80;20891;-80
2022/05/06 02:49:00;;;;;;;;;;;;;;;11.51;98.00;98595.39;1741843;80;21053;-89
2022/05/06 02:51:30;;;;;;;21.93;12.30;;;;;;;11.47;97.64;98597.84;1695335;82;20127;-80
2022/05/06 02:53:57;;;;;;;20.08;14.13;;;;;;;11.41;100.00;98596.75;1734682;82;21044;-80
2022/05/06 02:56:24;;;;;;;22.73;14.75;;;;;;;11.42;99.98;98609.23;1743373;81;21796;-81
2022/05/06 02:58:50;;;;;;;15.65;13.00;;;;;;;11.42;100.00;98610.58;1732038;80;21239;-80
2022/05/06 03:01:16;;;;;;;16.02;12.78;;;;;;;11.40;100.00;98610.05;1748621;80;21666;-89
2022/05/06 03:03:42;;;;;;;15.20;11.43;;;;;;;11.39;100.00;98600.28;1709252;80;20875;-89
2022/05/06 03:06:07;;;;;;;25.43;15.25;;;;;;;11.43;99.97;98597.28;1728449;80;20903;-90
2022/05/06 03:08:34;;;;;;;17.48;13.38;;;;;;;11.37;99.40;98591.61;1735894;80;20925;-80
2022/05/06 03:11:00;;;;;;;22.93;16.48;;;;;;;11.33;99.24;98593.22;1719134;80;21062;-90
2022/05/06 03:13:26;;;;;;;24.05;16.20;;;;;;;11.32;99.48;98587.52;1728382;80;20931;-80
2022/05/06 03:15:52;;;;;;;20.27;15.58;;;;;;;11.29;100.00;98590.23;1723746;80;20919;-89
2022/05/06 03:18:18;;;;;;;21.40;15.10;;;;;;;11.33;100.00;98583.72;1713384;83;21007;-81
2022/05/06 03:20:44;;;;;;;20.08;14.53;;;;;;;11.35;100.00;98575.57;1723583;80;21467;-81
2022/05/06 03:23:13;;;;;;;20.70;14.45;;;;;;;11.38;99.62;98573.69;1709249;82;20995;-82
2022/05/06 03:25:39;;;;;;;18.73;14.47;;;;;;;11.40;99.07;98572.06;1738658;80;21099;-80
2022/05/06 03:28:09;;;;;;;17.90;13.72;;;;;;;11.41;98.94;98578.56;1743209;81;20941;-81
2022/05/06 03:30:39;;;;;;;16.50;12.75;;;;;;;11.40;99.41;98575.58;1737352;82;21047;-89
2022/05/06 03:33:08;;;;;;;17.50;13.43;;;;;;;11.38;99.19;98582.38;1718730;80;21167;-80
2022/05/06 03:35:35;;;;;;;15.05;12.00;;;;;;;11.38;98.79;98580.47;1718839;80;21058;-89
2022/05/06 03:38:01;;;;;;;17.27;11.50;;;;;;;11.39;98.80;98573.95;1730180;81;21457;-81
2022/05/06 03:40:27;;;;;;;105.17;46.23;;;;;;;11.40;98.79;98569.34;1742855;82;21058;-90
2022/05/06 03:42:53;;;;;;;91.17;68.52;;;;;;;11.36;98.99;98566.89;1736488;81;20909;-81
2022/05/06 03:45:19;;;;;;;34.23;23.62;;;;;;;11.31;98.78;98562.29;1715805;80;21075;-82
2022/05/06 03:47:45;;;;;;;21.42;16.80;;;;;;;11.32;98.80;98561.75;1728014;80;20993;-90
2022/05/06 03:52:55;;;;;;;22.17;15.00;;;;;;;11.34;98.90;98563.09;1729184;81;21004;-89
2022/05/06 03:55:21;;;;;;;18.67;13.38;;;;;;;11.30;98.81;98566.09;1740259;82;20851;-80
2022/05/06 03:57:47;;;;;;;18.35;13.25;;;;;;;11.32;98.95;98573.95;1720717;80;21305;-88
2022/05/06 04:00:14;;;;;;;17.67;13.10;;;;;;;11.28;99.11;98573.69;1742957;82;21543;-80
2022/05/06 04:02:41;;;;;;;18.70;14.28;;;;;;;11.25;99.26;98570.95;1743307;81;21099;-80
2022/05/06 04:05:07;;;;;;;20.00;15.03;;;;;;;11.19;99.25;98572.57;1721295;82;21426;-89
2022/05/06 04:07:33;;;;;;;27.60;17.42;;;;;;;11.17;99.20;98569.33;1739231;81;21037;-81
2022/05/06 04:09:59;;;;;;;21.60;15.95;;;;;;;11.17;99.15;98572.84;1707310;82;21900;-80
2022/05/06 04:12:25;;;;;;;19.10;15.23;;;;;;;11.21;98.95;98577.21;1739020;80;20941;-81
2022/05/06 04:14:51;;;;;;;28.45;18.12;;;;;;;11.23;98.66;98585.88;1723778;82;20893;-90
2022/05/06 04:17:17;;;;;;;24.37;18.05;;;;;;;11.29;98.62;98584.81;1708184;80;21500;-81
2022/05/06 04:25:15;;;;;;;24.32;17.73;;;;;;;11.35;98.86;98588.33;1732928;80;21016;-90
2022/05/06 04:27:42;;;;;;;19.65;16.17;;;;;;;11.30;98.70;98597.29;1719381;80;21547;-90
2022/05/06 04:30:09;;;;;;;25.48;16.65;;;;;;;11.30;98.85;98591.32;1743058;82;21068;-80
2022/05/06 04:32:35;;;;;;;37.33;29.55;;;;;;;11.29;99.54;98592.95;1738979;81;21003;-80
2022/05/06 04:35:05;;;;;;;33.25;19.73;;;;;;;11.34;99.50;98592.13;1707238;82;21321;-81
2022/05/06 04:37:31;;;;;;;25.68;18.70;;;;;;;11.40;99.22;98595.94;1726623;80;21465;-89
2022/05/06 04:39:57;;;;;;;24.45;18.10;;;;;;;11.43;98.93;98600.00;1722446;80;21015;-80
2022/05/06 04:42:23;;;;;;;26.45;18.80;;;;;;;11.52;98.96;98595.66;1728705;80;21609;-88
2022/05/06 04:44:49;;;;;;;31.52;20.52;;;;;;;11.53;98.83;98606.78;1728393;80;21018;-88
2022/05/06 04:47:15;;;;;;;29.15;20.40;;;;;;;11.56;98.55;98600.28;1728588;80;21251;-80
2022/05/06 04:49:41;;;;;;;24.63;19.05;;;;;;;11.64;98.63;98599.47;1735674;80;20909;-81
2022/05/06 04:52:07;;;;;;;25.65;17.95;;;;;;;11.72;98.37;98602.99;1745901;81;20889;-89
2022/05/06 04:54:33;;;;;;;25.50;18.55;;;;;;;11.77;98.23;98601.06;1736227;81;20997;-89
2022/05/06 04:56:59;;;;;;;24.63;16.60;;;;;;;11.81;98.21;98604.91;1743294;81;20989;-80
2022/05/06 04:59:25;;;;;;;19.80;16.32;;;;;;;11.84;98.08;98607.07;1743314;82;21983;-90
2022/05/06 05:01:51;;;;;;;19.77;16.02;;;;;;;11.89;97.91;98611.70;1718945;82;20966;-89
2022/05/06 05:04:17;;;;;;;25.25;16.00;;;;;;;11.89;98.84;98608.17;1713897;80;20907;-88
2022/05/06 05:06:43;;;;;;;19.67;16.05;;;;;;;11.88;99.41;98608.72;1720277;80;22170;-80
2022/05/06 05:09:09;;;;;;;20.97;16.23;;;;;;;11.94;99.08;98606.78;1744144;80;20905;-81
2022/05/06 05:11:35;;;;;;;18.85;14.60;;;;;;;11.98;99.14;98611.41;1744549;82;21288;-89
2022/05/06 05:14:06;;;;;;;18.90;14.63;;;;;;;11.99;99.15;98604.88;1711519;82;21167;-81
2022/05/06 05:16:29;;;;;;;22.00;16.10;;;;;;;12.08;98.81;98603.23;1706526;82;20994;-89
2022/05/06 05:18:55;;;;;;;21.70;15.93;;;;;;;12.11;99.44;98605.94;1719837;80;20911;-87
2022/05/06 05:21:21;;;;;;;23.15;15.83;;;;;;;12.16;99.39;98607.84;1721389;80;21668;-81
2022/05/06 05:23:47;;;;;;;25.92;17.45;;;;;;;12.30;98.51;98606.96;1719157;80;21307;-88
2022/05/06 05:26:13;;;;;;;22.45;17.90;;;;;;;12.42;98.19;98603.41;1712678;80;21354;-89
2022/05/06 05:28:39;;;;;;;27.27;20.08;;;;;;;12.49;97.97;98609.91;1707464;82;21664;-89
2022/05/06 05:31:05;;;;;;;23.85;16.70;;;;;;;12.56;97.93;98605.52;1724747;82;20889;-89
2022/05/06 05:33:30;;;;;;;27.45;19.40;;;;;;;12.64;97.56;98603.03;1742989;81;20882;-88
2022/05/06 05:35:56;;;;;;;27.70;19.75;;;;;;;12.73;97.33;98600.55;1733081;82;21918;-88
2022/05/06 05:38:22;;;;;;;26.62;21.90;;;;;;;12.86;97.22;98605.38;1731108;80;20945;-81
2022/05/06 05:40:48;;;;;;;28.65;20.15;;;;;;;12.99;97.18;98610.77;1742989;82;20894;-81
2022/05/06 05:48:35;;;;;;;19.80;15.55;;;;;;;13.26;96.41;98620.69;1679441;82;21144;-89
2022/05/06 05:51:01;;;;;;;16.45;13.62;;;;;;;13.34;95.97;98618.47;1742818;82;20954;-81
2022/05/06 05:53:27;;;;;;;15.80;11.63;;;;;;;13.44;96.09;98619.20;1739772;80;21551;-89
2022/05/06 05:55:53;;;;;;;16.80;11.90;;;;;;;13.39;95.65;98631.48;1729669;80;20897;-90
2022/05/06 05:58:19;;;;;;;13.65;11.28;;;;;;;13.36;95.75;98627.16;1733815;82;20835;-90
2022/05/06 06:00:45;;;;;;;13.55;10.78;;;;;;;13.37;95.48;98630.95;1712962;80;21369;-90
2022/05/06 06:03:11;;;;;;;15.30;11.20;;;;;;;13.30;95.02;98629.09;1719356;80;20905;-82
2022/05/06 06:05:37;;;;;;;16.77;11.75;;;;;;;13.22;94.76;98629.69;1715230;81;20958;-80
2022/05/06 06:08:04;;;;;;;16.32;11.85;;;;;;;13.16;94.92;98627.53;1722644;80;21514;-88
2022/05/06 06:10:30;;;;;;;16.07;11.97;;;;;;;13.15;94.79;98632.69;1711137;80;21125;-89
2022/05/06 06:12:57;;;;;;;15.98;10.75;;;;;;;13.22;94.67;98633.77;1727469;81;21461;-81
2022/05/06 06:15:23;;;;;;;15.05;11.40;;;;;;;13.24;94.60;98635.66;1730134;80;21072;-90
2022/05/06 06:17:49;;;;;;;16.97;11.90;;;;;;;13.32;94.42;98640.50;1725377;80;21551;-81
2022/05/06 06:20:14;;;;;;;17.05;11.95;;;;;;;13.37;94.28;98637.76;1727252;80;20874;-89
2022/05/06 06:22:40;;;;;;;15.28;10.30;;;;;;;13.42;93.84;98641.01;1748833;80;20902;-90
2022/05/06 06:25:07;;;;;;;14.45;10.70;;;;;;;13.52;93.89;98643.66;1713116;80;21914;-89
2022/05/06 06:27:34;;;;;;;12.40;10.38;;;;;;;13.64;93.18;98644.64;1732471;80;21025;-89
2022/05/06 06:30:01;;;;;;;16.80;10.72;;;;;;;13.64;92.52;98641.37;1734745;82;21127;-80
2022/05/06 06:32:27;;;;;;;12.50;10.15;;;;;;;13.68;92.58;98643.80;1722094;82;21011;-80
2022/05/06 06:34:55;;;;;;;19.10;12.10;;;;;;;13.77;92.11;98640.73;1714813;80;21494;-81
2022/05/06 06:37:21;;;;;;;16.00;11.30;;;;;;;13.84;91.70;98647.19;1729446;80;21249;-88
2022/05/06 06:39:48;;;;;;;14.23;10.98;;;;;;;13.84;91.31;98647.19;1721001;80;21009;-89
2022/05/06 06:42:14;;;;;;;16.73;12.40;;;;;;;13.79;91.54;98648.61;1717251;81;21042;-90
2022/05/06 06:44:40;;;;;;;15.40;12.85;;;;;;;13.81;91.64;98651.30;1722299;80;20966;-90
2022/05/06 06:47:09;;;;;;;16.42;14.50;;;;;;;13.89;91.58;98653.16;1720989;80;21569;-89
2022/05/06 06:49:36;;;;;;;14.73;12.18;;;;;;;13.89;91.41;98652.60;1728527;80;21073;-87
2022/05/06 06:52:03;;;;;;;13.72;11.15;;;;;;;13.89;91.15;98653.16;1724675;80;21004;-88
2022/05/06 06:54:29;;;;;;;23.38;16.48;;;;;;;13.77;91.07;98651.63;1726439;80;21147;-89
2022/05/06 06:56:55;;;;;;;31.10;19.70;;;;;;;13.75;91.20;98652.44;1734918;80;21492;-88
2022/05/06 06:59:21;;;;;;;72.47;43.28;;;;;;;13.76;91.30;98651.91;1717237;81;20965;-89
2022/05/06 07:01:47;;;;;;;37.80;24.87;;;;;;;13.78;91.10;98657.88;1740281;80;21144;-89
2022/05/06 07:04:13;;;;;;;25.75;19.90;;;;;;;13.78;91.08;98657.88;1716493;80;20948;-89
2022/05/06 07:12:09;;;;;;;20.12;16.23;;;;;;;13.80;91.00;98659.22;1731852;80;21061;-89
2022/05/06 07:14:39;;;;;;;23.35;17.55;;;;;;;13.81;91.37;98662.75;1715719;80;21191;-89
2022/05/06 07:17:05;;;;;;;21.82;16.07;;;;;;;13.86;91.37;98661.36;1722385;80;22344;-89
2022/05/06 07:19:33;;;;;;;22.70;17.20;;;;;;;13.89;91.08;98663.50;1734149;80;21144;-80
2022/05/06 07:21:59;;;;;;;22.73;18.27;;;;;;;13.88;91.12;98661.88;1726557;80;21061;-82
2022/05/06 07:24:25;;;;;;;22.50;15.03;;;;;;;13.91;91.07;98660.48;1726470;80;21009;-80
2022/05/06 07:26:52;;;;;;;25.35;18.50;;;;;;;13.93;91.13;98661.84;1721621;80;21311;-81
2022/05/06 07:29:19;;;;;;;27.50;22.85;;;;;;;13.86;91.19;98666.00;1728132;80;21383;-81
2022/05/06 07:31:45;;;;;;;31.27;24.32;;;;;;;13.80;91.37;98662.48;1727679;80;21044;-80
2022/05/06 07:34:11;;;;;;;24.32;18.90;;;;;;;13.78;91.54;98664.14;1723704;80;21547;-89
2022/05/06 07:36:42;;;;;;;21.65;17.23;;;;;;;13.75;91.35;98670.14;1724704;80;21133;-90
2022/05/06 07:39:12;;;;;;;24.55;19.07;;;;;;;13.73;91.54;98670.17;1724012;80;39897;-88
2022/05/06 07:41:38;;;;;;;25.27;19.10;;;;;;;13.73;91.60;98667.44;1726625;80;21061;-89
2022/05/06 07:44:05;;;;;;;24.87;19.90;;;;;;;13.83;91.80;98668.17;1720991;80;21032;-89
2022/05/06 07:46:32;;;;;;;49.00;34.20;;;;;;;14.00;91.64;98671.03;1729962;81;21071;-87
2022/05/06 07:48:58;;;;;;;28.85;21.62;;;;;;;14.18;91.53;98673.59;1733487;80;21048;-90
2022/05/06 07:51:24;;;;;;;26.45;19.77;;;;;;;14.24;91.39;98673.26;1732905;81;21698;-90
2022/05/06 07:53:52;;;;;;;25.00;19.45;;;;;;;14.30;91.28;98674.03;1723210;80;20878;-90
2022/05/06 07:56:19;;;;;;;28.67;20.70;;;;;;;14.37;91.50;98675.87;1728556;80;21061;-89
2022/05/06 07:58:45;;;;;;;21.90;16.52;;;;;;;14.56;91.08;98669.16;1725318;80;21486;-88
2022/05/06 08:01:12;;;;;;;21.02;17.62;;;;;;;14.62;90.43;98668.81;1728236;80;21116;-89
2022/05/06 08:06:22;;;;;;;21.42;15.68;;;;;;;14.73;90.30;98679.05;1732657;80;21108;-90
2022/05/06 08:08:48;;;;;;;15.53;13.55;;;;;;;14.83;90.07;98678.92;1729351;80;21020;-80
2022/05/06 08:11:14;;;;;;;18.35;14.90;;;;;;;14.83;89.70;98683.02;1734543;81;21649;-80
2022/05/06 08:13:40;;;;;;;20.85;17.07;;;;;;;14.79;89.75;98679.81;1736451;80;20915;-81
2022/05/06 08:16:06;;;;;;;41.55;37.03;;;;;;;14.84;89.57;98682.46;1719533;81;21015;-81
2022/05/06 08:18:32;;;;;;;47.95;42.58;;;;;;;14.89;89.46;98676.41;1721974;80;20871;-80
2022/05/06 08:20:58;;;;;;;28.62;25.60;;;;;;;14.98;89.31;98677.12;1724415;80;21044;-81
2022/05/06 08:23:24;;;;;;;13.25;11.83;;;;;;;15.07;88.65;98676.72;1732700;80;21575;-80
2022/05/06 08:25:51;;;;;;;14.93;11.08;;;;;;;15.15;88.44;98678.80;1724009;80;21504;-81
2022/05/06 08:28:19;;;;;;;20.05;16.40;;;;;;;15.24;87.77;98679.22;1729776;80;21061;-81
2022/05/06 08:30:46;;;;;;;17.27;14.07;;;;;;;15.26;87.45;98683.01;1734046;80;21565;-81
2022/05/06 08:33:12;;;;;;;20.90;13.70;;;;;;;15.35;86.96;98685.89;1725259;80;21041;-81
2022/05/06 08:35:38;;;;;;;17.17;13.25;;;;;;;15.46;86.53;98690.09;1720535;80;22261;-81
2022/05/06 08:38:05;;;;;;;18.12;13.40;;;;;;;15.52;86.16;98686.19;1732973;80;21663;-81
2022/05/06 08:40:31;;;;;;;51.85;38.45;;;;;;;15.56;86.26;98691.34;1738859;81;21121;-81
2022/05/06 08:42:57;;;;;;;49.48;36.03;;;;;;;15.64;85.93;98690.70;1731571;81;21474;-81
2022/05/06 08:50:56;;;;;;;49.40;34.83;;;;;;;15.83;84.79;98693.41;1716719;80;21466;-80
2022/05/06 08:53:27;;;;;;;62.38;44.75;;;;;;;15.82;84.43;98697.81;1730044;80;21126;-80
2022/05/06 08:55:55;;;;;;;38.20;26.77;;;;;;;15.85;84.23;98691.73;1734232;80;21701;-81
2022/05/06 08:58:25;;;;;;;24.37;17.80;;;;;;;15.91;84.25;98696.02;1725277;80;21047;-81
2022/05/06 09:00:53;;;;;;;21.95;16.97;;;;;;;15.97;84.43;98690.16;1725857;80;21562;-81
2022/05/06 09:03:19;;;;;;;26.17;13.15;;;;;;;16.02;84.48;98694.18;1724676;80;21802;-81
2022/05/06 09:05:57;;;;;;;21.77;11.63;;;;;;;16.03;83.29;98699.09;1740867;80;21914;-81
2022/05/06 09:08:23;;;;;;;15.83;13.37;;;;;;;15.95;83.97;98691.02;1727496;80;21022;-81
2022/05/06 09:11:00;;;;;;;22.25;16.40;;;;;;;16.00;83.54;98691.50;1724134;81;22610;-81
2022/05/06 09:13:26;;;;;;;25.08;18.23;;;;;;;15.98;83.20;98693.69;1733832;81;21171;-81
2022/05/06 09:19:24;;;;;;;13.85;11.00;;;;;;;15.92;83.23;98703.92;1717857;80;21158;-81
2022/05/06 09:22:02;;;;;;;17.02;12.15;;;;;;;15.84;83.67;98703.23;1719180;80;20990;-81
2022/05/06 09:24:28;;;;;;;14.85;10.78;;;;;;;15.78;83.81;98698.39;1729631;80;21037;-80
2022/05/06 09:27:05;;;;;;;12.45;10.20;;;;;;;15.76;83.91;98695.14;1738917;80;21539;-81
2022/05/06 09:29:42;;;;;;;15.00;10.30;;;;;;;15.78;83.78;98703.04;1725514;80;21509;-81
2022/05/06 09:32:26;;;;;;;16.17;10.43;;;;;;;15.76;83.67;98712.09;1735145;80;21147;-81
2022/05/06 09:35:11;;;;;;;15.90;12.50;;;;;;;15.73;83.71;98707.23;1734468;80;20977;-81
2022/05/06 09:37:45;;;;;;;17.35;11.68;;;;;;;15.70;83.50;98708.62;1738962;80;21012;-81
2022/05/06 09:40:15;;;;;;;14.78;12.07;;;;;;;15.65;83.72;98705.98;1726599;80;20977;-80
2022/05/06 09:42:46;;;;;;;19.82;13.65;;;;;;;15.69;83.85;98707.00;1667608;82;20990;-81
2022/05/06 09:45:14;;;;;;;15.45;12.15;;;;;;;15.73;83.89;98708.60;1717266;81;21105;-88
2022/05/06 09:47:42;;;;;;;24.07;13.38;;;;;;;15.79;83.95;98714.22;1733779;80;21057;-87
2022/05/06 09:50:09;;;;;;;29.67;12.37;;;;;;;15.83;84.02;98706.27;1734402;80;21021;-86
2022/05/06 09:52:35;;;;;;;22.90;14.80;;;;;;;15.89;83.98;98710.52;1734024;81;21108;-87
2022/05/06 09:55:02;;;;;;;20.15;14.03;;;;;;;15.95;83.89;98711.51;1723863;80;21103;-87
2022/05/06 09:57:29;;;;;;;21.02;14.23;;;;;;;15.99;83.77;98713.92;1686607;82;21187;-88
2022/05/06 09:59:55;;;;;;;15.90;12.43;;;;;;;16.04;83.45;98717.92;1677040;83;22221;-88
2022/05/06 10:02:21;;;;;;;13.58;10.15;;;;;;;16.07;83.60;98713.24;1721586;81;22507;-86
2022/05/06 10:04:49;;;;;;;12.37;9.65;;;;;;;16.13;83.15;98714.51;1723268;82;20965;-88
2022/05/06 10:07:17;;;;;;;14.38;12.73;;;;;;;16.04;83.32;98714.38;1729652;80;21113;-81
2022/05/06 10:10:01;;;;;;;22.42;15.08;;;;;;;16.04;83.31;98715.19;1730254;80;21293;-81
2022/05/06 10:12:29;;;;;;;18.87;12.25;;;;;;;16.05;83.27;98727.73;1718692;80;21069;-81
2022/05/06 10:14:55;;;;;;;16.20;13.38;;;;;;;16.10;83.04;98715.92;1697956;82;21041;-81
2022/05/06 10:17:53;;;;;;;22.95;18.37;;;;;;;16.02;83.27;98719.34;1703208;80;21011;-81
2022/05/06 10:20:45;;;;;;;17.35;12.80;;;;;;;16.04;83.55;98711.64;1729417;80;21548;-81
2022/05/06 10:23:12;;;;;;;14.13;10.98;;;;;;;15.94;83.90;98707.16;1726166;80;22091;-81
2022/05/06 10:25:48;;;;;;;15.50;11.97;;;;;;;15.98;83.82;98710.94;1717947;80;21580;-81
2022/05/06 10:34:23;;;;;;;24.77;15.32;;;;;;;15.91;84.39;98711.86;1725429;80;21564;-81
2022/05/06 10:36:53;;;;;;;21.55;15.05;;;;;;;15.88;84.62;98713.00;1738228;80;21143;-81
2022/05/06 10:39:37;;;;;;;17.20;13.43;;;;;;;15.82;84.85;98715.02;1736745;80;21445;-81
2022/05/06 10:42:07;;;;;;;15.08;11.78;;;;;;;15.76;84.99;98712.91;1720044;80;21480;-81
2022/05/06 10:44:48;;;;;;;18.20;12.82;;;;;;;15.71;85.30;98720.36;1725158;80;21542;-81
2022/05/06 10:47:19;;;;;;;15.80;12.40;;;;;;;15.63;85.69;98716.37;1715960;81;21404;-81
2022/05/06 10:49:47;;;;;;;17.48;11.90;;;;;;;15.51;85.83;98720.89;1728205;80;21532;-81
2022/05/06 10:52:25;;;;;;;15.07;11.37;;;;;;;15.43;85.91;98715.27;1724059;81;20990;-81
2022/05/06 10:54:58;;;;;;;17.52;13.05;;;;;;;15.39;86.19;98721.08;1727753;80;21071;-81
2022/05/06 10:57:27;;;;;;;15.83;11.93;;;;;;;15.25;86.39;98711.42;1720594;81;21043;-87
2022/05/06 11:00:00;;;;;;;13.25;11.85;;;;;;;15.26;86.59;98710.87;1720965;80;20958;-87
2022/05/06 11:02:31;;;;;;;11.05;9.68;;;;;;;15.22;86.53;98715.56;1727883;80;21112;-88
2022/05/06 11:04:59;;;;;;;12.40;9.35;;;;;;;15.26;86.56;98715.77;1736686;80;21057;-88
2022/05/06 11:07:25;;;;;;;12.60;10.10;;;;;;;15.37;86.62;98713.71;1725862;82;21025;-88
2022/05/06 11:09:51;;;;;;;13.53;9.30;;;;;;;15.48;86.88;98709.20;1724020;80;21148;-85
2022/05/06 11:12:41;;;;;;;10.32;8.68;;;;;;;15.59;87.03;98715.31;1710808;80;21553;-88
2022/05/06 11:15:07;;;;;;;8.90;7.67;;;;;;;15.65;86.96;98713.36;1724952;80;21382;-88
2022/05/06 11:17:33;;;;;;;10.00;8.88;;;;;;;15.68;86.76;98710.03;1725170;80;21085;-88
2022/05/06 11:20:00;;;;;;;12.75;9.55;;;;;;;15.75;86.95;98709.92;1735182;80;20987;-86
2022/05/06 11:22:26;;;;;;;15.23;9.98;;;;;;;15.72;86.77;98702.85;1737094;80;21010;-87
2022/05/06 11:24:56;;;;;;;14.15;9.88;;;;;;;15.87;86.90;98703.17;1729455;80;21696;-88
2022/05/06 11:27:22;;;;;;;11.48;9.95;;;;;;;16.00;86.47;98703.80;1743604;80;21100;-88
2022/05/06 11:29:59;;;;;;;14.28;11.60;;;;;;;16.05;86.40;98707.23;1708789;82;20909;-87
2022/05/06 11:32:28;;;;;;;11.75;10.38;;;;;;;16.17;86.46;98705.98;1728595;80;21135;-86
2022/05/06 11:35:11;;;;;;;14.80;11.88;;;;;;;16.33;85.62;98699.95;1728721;80;21165;-88
2022/05/06 11:37:41;;;;;;;14.13;10.85;;;;;;;16.38;85.91;98696.30;1729131;80;20994;-87
2022/05/06 11:40:32;;;;;;;18.90;13.98;;;;;;;16.50;85.71;98695.27;1734101;80;21097;-88
2022/05/06 11:42:47;;;;;;;18.23;12.93;;;;;;;16.58;85.80;98691.83;1734086;80;21194;-86
2022/05/06 11:48:09;;;;;;;27.60;16.57;;;;;;;16.63;85.12;98693.08;1736605;80;21018;-89
2022/05/06 11:50:36;;;;;;;17.95;15.85;;;;;;;16.61;84.92;98699.98;1729047;81;21064;-87
2022/05/06 11:53:04;;;;;;;14.53;12.78;;;;;;;16.59;84.92;98700.29;1725652;80;22002;-87
2022/05/06 11:55:30;;;;;;;19.05;16.07;;;;;;;16.61;84.62;98697.25;1730277;80;21074;-87
2022/05/06 11:57:56;;;;;;;25.80;19.48;;;;;;;16.69;84.57;98692.47;1729737;81;21516;-86
2022/05/06 12:00:23;;;;;;;20.95;15.23;;;;;;;16.79;84.56;98687.35;1735688;80;21049;-80
2022/05/06 12:02:51;;;;;;;19.57;15.40;;;;;;;16.82;83.91;98682.63;1721785;80;21044;-81
2022/05/06 12:05:17;;;;;;;17.42;15.00;;;;;;;16.86;83.84;98679.55;1734839;80;21948;-81
2022/05/06 12:07:45;;;;;;;19.42;14.25;;;;;;;16.96;83.81;98684.00;1736128;80;21105;-80